createdAt,value
2023-02-27T00:00:14.055Z,2.28
2023-02-27T00:03:20.007Z,2.00
2023-02-27T00:06:24.166Z,2.00
2023-02-27T00:09:30.084Z,2.20
2023-02-27T00:12:38.378Z,1.98
2023-02-27T00:15:47.475Z,1.90
2023-02-27T00:18:51.497Z,2.05
2023-02-27T00:21:57.459Z,1.63
2023-02-27T00:25:01.399Z,1.85
2023-02-27T00:28:09.720Z,3.28
2023-02-27T00:31:13.849Z,1.90
2023-02-27T00:34:19.785Z,1.73
2023-02-27T00:37:23.803Z,1.42
2023-02-27T00:40:29.830Z,1.95
2023-02-27T00:43:36.614Z,1.45
2023-02-27T00:46:42.595Z,2.30
2023-02-27T00:49:46.545Z,2.10
2023-02-27T00:52:52.420Z,1.83
2023-02-27T00:55:56.347Z,1.70
2023-02-27T00:59:04.442Z,1.50
2023-02-27T01:02:08.778Z,1.52
2023-02-27T01:05:14.709Z,1.55
2023-02-27T01:08:19.621Z,1.80
2023-02-27T01:11:26.090Z,2.00
2023-02-27T01:14:32.287Z,1.52
2023-02-27T01:17:41.230Z,1.70
2023-02-27T01:20:45.360Z,2.00
2023-02-27T01:23:52.584Z,1.70
2023-02-27T01:26:56.508Z,2.28
2023-02-27T01:30:04.840Z,1.40
2023-02-27T01:33:09.511Z,2.15
2023-02-27T01:36:18.429Z,1.60
2023-02-27T01:39:22.500Z,1.70
2023-02-27T01:42:29.997Z,1.58
2023-02-27T01:45:41.030Z,1.73
2023-02-27T01:48:47.090Z,1.85
2023-02-27T01:51:53.109Z,2.13
2023-02-27T01:55:00.653Z,2.00
2023-02-27T01:58:05.210Z,1.73
2023-02-27T02:01:13.281Z,1.88
2023-02-27T02:04:23.860Z,1.92
2023-02-27T02:07:31.320Z,1.48
2023-02-27T02:10:35.878Z,1.52
2023-02-27T02:13:43.896Z,1.65
2023-02-27T02:17:13.848Z,2.10
2023-02-27T02:21:03.966Z,1.70
2023-02-27T02:24:46.205Z,2.08
2023-02-27T02:28:04.249Z,1.77
2023-02-27T02:31:33.694Z,2.17
2023-02-27T02:35:15.563Z,1.58
2023-02-27T02:38:33.877Z,1.73
2023-02-27T02:41:52.450Z,2.05
2023-02-27T02:45:07.861Z,1.70
2023-02-27T02:48:18.933Z,1.83
2023-02-27T02:51:32.462Z,2.42
2023-02-27T02:54:45.214Z,2.83
2023-02-27T02:57:54.434Z,2.65
2023-02-27T03:01:05.079Z,2.70
2023-02-27T03:04:15.068Z,2.60
2023-02-27T03:07:25.311Z,3.05
2023-02-27T03:10:35.113Z,2.92
2023-02-27T03:13:46.125Z,3.47
2023-02-27T03:16:54.786Z,3.03
2023-02-27T03:20:04.766Z,5.20
2023-02-27T03:23:17.614Z,3.78
2023-02-27T03:26:32.794Z,2.72
2023-02-27T03:29:41.380Z,2.38
2023-02-27T03:32:55.814Z,2.70
2023-02-27T03:36:08.503Z,3.33
2023-02-27T03:39:25.105Z,2.85
2023-02-27T03:42:37.677Z,2.38
2023-02-27T03:45:58.550Z,2.28
2023-02-27T03:49:02.815Z,2.40
2023-02-27T03:52:08.803Z,2.13
2023-02-27T03:55:17.157Z,2.00
2023-02-27T03:58:25.886Z,2.20
2023-02-27T04:01:30.990Z,2.05
2023-02-27T04:04:36.988Z,2.30
2023-02-27T04:11:36.417Z,2.28
2023-02-27T04:14:58.712Z,2.30
2023-02-27T04:21:23.030Z,2.40
2023-02-27T04:24:37.689Z,2.78
2023-02-27T04:27:50.015Z,3.67
2023-02-27T04:31:12.622Z,3.47
2023-02-27T04:34:24.925Z,4.18
2023-02-27T04:37:34.178Z,3.63
2023-02-27T04:40:45.165Z,4.47
2023-02-27T04:43:52.561Z,3.47
2023-02-27T04:47:01.144Z,3.92
2023-02-27T04:50:14.994Z,3.92
2023-02-27T04:53:23.764Z,3.92
2023-02-27T04:56:33.448Z,4.32
2023-02-27T04:59:41.357Z,3.78
2023-02-27T05:02:53.821Z,3.00
2023-02-27T05:06:02.359Z,3.13
2023-02-27T05:09:19.995Z,2.88
2023-02-27T05:12:27.924Z,2.70
2023-02-27T05:15:38.159Z,2.63
2023-02-27T05:18:44.849Z,2.38
2023-02-27T05:21:59.075Z,2.53
2023-02-27T05:25:07.787Z,2.60
2023-02-27T05:28:20.513Z,2.78
2023-02-27T05:31:30.178Z,2.80
2023-02-27T05:34:43.756Z,2.42
2023-02-27T05:37:51.687Z,2.20
2023-02-27T05:41:02.337Z,3.08
2023-02-27T05:44:12.066Z,2.47
2023-02-27T05:47:22.302Z,2.45
2023-02-27T05:50:32.844Z,2.78
2023-02-27T05:53:44.356Z,3.03
2023-02-27T05:56:52.280Z,2.33
2023-02-27T06:00:04.412Z,2.78
2023-02-27T06:03:16.228Z,2.47
2023-02-27T06:06:25.667Z,2.17
2023-02-27T06:09:30.116Z,2.35
2023-02-27T06:12:36.839Z,2.92
2023-02-27T06:15:40.724Z,2.30
2023-02-27T06:18:46.614Z,2.33
2023-02-27T06:21:52.520Z,2.60
2023-02-27T06:24:58.530Z,2.22
2023-02-27T06:28:02.934Z,2.83
2023-02-27T06:31:08.923Z,2.65
2023-02-27T06:34:12.802Z,3.00
2023-02-27T06:37:21.038Z,2.53
2023-02-27T06:40:25.605Z,2.38
2023-02-27T06:43:34.088Z,2.70
2023-02-27T06:46:38.069Z,2.65
2023-02-27T06:49:44.102Z,2.50
2023-02-27T06:52:49.961Z,2.72
2023-02-27T06:55:55.998Z,2.65
2023-02-27T06:58:59.910Z,2.60
2023-02-27T07:02:05.917Z,5.45
2023-02-27T07:05:11.020Z,5.78
2023-02-27T07:08:18.937Z,5.68
2023-02-27T07:11:22.856Z,5.15
2023-02-27T07:14:28.858Z,4.07
2023-02-27T07:17:33.119Z,4.20
2023-02-27T07:20:39.504Z,4.72
2023-02-27T07:23:45.420Z,4.03
2023-02-27T07:26:51.293Z,3.83
2023-02-27T07:29:55.209Z,3.92
2023-02-27T07:33:01.183Z,3.33
2023-02-27T07:36:05.361Z,3.08
2023-02-27T07:39:13.937Z,3.20
2023-02-27T07:42:17.903Z,2.92
2023-02-27T07:45:23.851Z,3.28
2023-02-27T07:48:28.474Z,4.22
2023-02-27T07:51:34.481Z,4.72
2023-02-27T07:54:40.273Z,4.18
2023-02-27T07:57:46.627Z,4.13
2023-02-27T08:00:50.506Z,4.53
2023-02-27T08:03:57.899Z,4.50
2023-02-27T08:07:02.585Z,4.15
2023-02-27T08:10:12.293Z,3.53
2023-02-27T08:13:20.542Z,3.45
2023-02-27T08:16:27.295Z,3.88
2023-02-27T08:19:31.628Z,5.15
2023-02-27T08:22:37.699Z,4.85
2023-02-27T08:25:43.626Z,5.82
2023-02-27T08:28:49.642Z,4.80
2023-02-27T08:31:53.725Z,4.28
2023-02-27T08:34:59.863Z,4.07
2023-02-27T08:38:04.997Z,3.95
2023-02-27T08:41:12.818Z,3.03
2023-02-27T08:44:16.852Z,3.50
2023-02-27T08:47:22.765Z,3.47
2023-02-27T08:50:26.702Z,2.40
2023-02-27T08:53:32.884Z,2.17
2023-02-27T08:56:38.760Z,2.60
2023-02-27T08:59:44.715Z,2.00
2023-02-27T09:02:48.934Z,1.95
2023-02-27T09:05:54.803Z,1.98
2023-02-27T09:12:07.449Z,2.42
2023-02-27T09:15:13.072Z,2.50
2023-02-27T09:18:19.035Z,2.30
2023-02-27T09:24:29.362Z,2.10
2023-02-27T09:27:35.240Z,2.13
2023-02-27T09:30:41.195Z,1.50
2023-02-27T09:33:45.441Z,2.20
2023-02-27T09:36:51.590Z,2.67
2023-02-27T09:39:55.522Z,1.98
2023-02-27T09:43:10.062Z,2.00
2023-02-27T09:46:21.091Z,2.38
2023-02-27T09:49:34.067Z,2.40
2023-02-27T09:52:38.991Z,2.08
2023-02-27T09:55:47.243Z,2.63
2023-02-27T09:58:58.093Z,1.63
2023-02-27T10:02:13.613Z,1.55
2023-02-27T10:05:28.396Z,1.30
2023-02-27T10:08:41.465Z,1.70
2023-02-27T10:11:57.628Z,1.63
2023-02-27T10:15:15.859Z,1.30
2023-02-27T10:18:28.981Z,1.40
2023-02-27T10:21:41.517Z,1.30
2023-02-27T10:24:52.100Z,1.27
2023-02-27T10:28:03.050Z,1.63
2023-02-27T10:31:18.551Z,1.40
2023-02-27T10:34:27.579Z,1.05
2023-02-27T10:37:31.710Z,1.20
2023-02-27T10:40:40.565Z,1.27
2023-02-27T10:43:45.262Z,2.05
2023-02-27T10:46:53.243Z,1.15
2023-02-27T10:49:59.736Z,1.00
2023-02-27T10:53:09.704Z,1.20
2023-02-27T10:56:20.295Z,1.10
2023-02-27T10:59:29.306Z,1.10
2023-02-27T11:02:39.398Z,0.65
2023-02-27T11:05:53.509Z,1.00
2023-02-27T11:09:14.587Z,0.70
2023-02-27T11:12:25.538Z,0.63
2023-02-27T11:15:31.888Z,1.02
2023-02-27T11:18:41.418Z,1.10
2023-02-27T11:22:02.289Z,0.63
2023-02-27T11:25:22.063Z,1.40
2023-02-27T11:28:30.534Z,1.13
2023-02-27T11:31:38.525Z,0.77
2023-02-27T11:34:51.168Z,0.77
2023-02-27T11:37:58.682Z,0.60
2023-02-27T11:41:04.824Z,1.00
2023-02-27T11:44:23.994Z,0.80
2023-02-27T11:47:43.618Z,0.93
2023-02-27T11:51:16.313Z,1.08
2023-02-27T11:54:36.137Z,0.80
2023-02-27T11:57:45.708Z,1.20
2023-02-27T12:00:55.881Z,1.35
2023-02-27T12:04:06.411Z,0.90
2023-02-27T12:07:21.997Z,1.10
2023-02-27T12:10:32.187Z,1.35
2023-02-27T12:13:41.510Z,1.17
2023-02-27T12:16:51.822Z,1.30
2023-02-27T12:20:15.389Z,1.60
2023-02-27T12:23:30.537Z,1.40
2023-02-27T12:26:39.508Z,1.83
2023-02-27T12:29:56.277Z,1.42
2023-02-27T12:33:06.198Z,1.60
2023-02-27T12:36:13.963Z,1.70
2023-02-27T12:39:23.428Z,1.05
2023-02-27T12:42:51.767Z,1.45
2023-02-27T12:46:02.749Z,1.20
2023-02-27T12:49:20.906Z,1.30
2023-02-27T12:52:36.716Z,1.20
2023-02-27T12:55:48.844Z,1.20
2023-02-27T12:59:01.683Z,1.17
2023-02-27T13:02:24.705Z,1.45
2023-02-27T13:05:52.260Z,1.40
2023-02-27T13:09:09.942Z,1.27
2023-02-27T13:12:24.862Z,1.40
2023-02-27T13:15:40.341Z,2.50
2023-02-27T13:18:49.250Z,1.33
2023-02-27T13:21:57.422Z,1.00
2023-02-27T13:25:07.940Z,1.40
2023-02-27T13:28:21.417Z,1.17
2023-02-27T13:31:34.561Z,1.10
2023-02-27T13:34:44.628Z,1.17
2023-02-27T13:37:54.463Z,1.10
2023-02-27T13:41:36.153Z,1.23
2023-02-27T13:44:43.801Z,1.00
2023-02-27T13:47:50.777Z,1.30
2023-02-27T13:50:54.930Z,1.20
2023-02-27T13:54:20.607Z,1.42
2023-02-27T13:57:27.333Z,1.95
2023-02-27T14:00:37.361Z,1.35
2023-02-27T14:03:42.278Z,1.15
2023-02-27T14:06:49.955Z,1.55
2023-02-27T14:10:02.095Z,1.30
2023-02-27T14:16:34.701Z,1.75
2023-02-27T14:19:59.239Z,1.38
2023-02-27T14:23:21.858Z,1.60
2023-02-27T14:26:28.112Z,1.63
2023-02-27T14:29:35.347Z,1.95
2023-02-27T14:32:41.291Z,1.50
2023-02-27T14:35:54.334Z,1.35
2023-02-27T14:39:02.838Z,1.40
2023-02-27T14:42:34.768Z,1.42
2023-02-27T14:45:40.987Z,1.30
2023-02-27T14:48:45.140Z,1.60
2023-02-27T14:51:53.530Z,1.30
2023-02-27T14:55:13.774Z,1.20
2023-02-27T14:58:22.498Z,1.77
2023-02-27T15:01:30.388Z,1.25
2023-02-27T15:04:36.699Z,1.30
2023-02-27T15:07:45.573Z,1.15
2023-02-27T15:10:53.462Z,1.55
2023-02-27T15:14:00.854Z,1.55
2023-02-27T15:17:17.174Z,1.15
2023-02-27T15:20:29.308Z,1.55
2023-02-27T15:26:43.074Z,1.40
2023-02-27T15:29:52.122Z,1.38
2023-02-27T15:32:56.747Z,1.48
2023-02-27T15:36:03.595Z,1.48
2023-02-27T15:39:25.179Z,1.27
2023-02-27T15:42:35.798Z,1.30
2023-02-27T15:45:40.934Z,1.23
2023-02-27T15:48:46.955Z,1.00
2023-02-27T15:51:59.131Z,1.58
2023-02-27T15:55:13.645Z,1.42
2023-02-27T15:58:26.070Z,1.20
2023-02-27T16:01:34.243Z,1.20
2023-02-27T16:04:38.296Z,1.90
2023-02-27T16:07:45.488Z,1.50
2023-02-27T16:10:52.759Z,1.10
2023-02-27T16:13:59.113Z,1.00
2023-02-27T16:17:03.595Z,1.30
2023-02-27T16:20:32.622Z,1.13
2023-02-27T16:23:36.948Z,1.10
2023-02-27T16:26:50.743Z,1.23
2023-02-27T16:30:00.910Z,1.75
2023-02-27T16:33:07.209Z,1.40
2023-02-27T16:36:20.022Z,1.77
2023-02-27T16:39:26.945Z,1.50
2023-02-27T16:42:32.991Z,1.42
2023-02-27T16:45:39.011Z,1.42
2023-02-27T16:48:43.069Z,1.10
2023-02-27T16:51:49.797Z,1.30
2023-02-27T16:54:53.970Z,1.33
2023-02-27T16:58:02.102Z,1.10
2023-02-27T17:01:06.592Z,1.30
2023-02-27T17:04:25.004Z,1.48
2023-02-27T17:07:29.916Z,2.42
2023-02-27T17:10:36.339Z,2.58
2023-02-27T17:13:42.801Z,1.98
2023-02-27T17:16:49.645Z,2.40
2023-02-27T17:19:54.301Z,2.20
2023-02-27T17:23:00.733Z,1.35
2023-02-27T17:26:05.083Z,9.65
2023-02-27T17:29:14.439Z,3.72
2023-02-27T17:32:18.627Z,1.88
2023-02-27T17:35:25.037Z,1.42
2023-02-27T17:38:29.340Z,2.05
2023-02-27T17:41:35.848Z,1.52
2023-02-27T17:44:44.852Z,1.98
2023-02-27T17:47:51.790Z,1.50
2023-02-27T17:50:55.880Z,1.20
2023-02-27T17:54:03.816Z,0.90
2023-02-27T17:57:09.803Z,1.40
2023-02-27T18:00:18.640Z,1.20
2023-02-27T18:03:27.810Z,1.55
2023-02-27T18:06:33.794Z,1.88
2023-02-27T18:09:37.844Z,1.75
2023-02-27T18:12:45.110Z,1.20
2023-02-27T18:15:52.123Z,1.63
2023-02-27T18:18:58.180Z,1.67
2023-02-27T18:22:02.145Z,1.50
2023-02-27T18:25:09.436Z,1.10
2023-02-27T18:28:13.495Z,2.15
2023-02-27T18:31:23.150Z,3.58
2023-02-27T18:34:27.620Z,3.80
2023-02-27T18:37:33.809Z,2.30
2023-02-27T18:40:40.098Z,1.70
2023-02-27T18:43:46.486Z,2.15
2023-02-27T18:46:52.596Z,1.30
2023-02-27T18:49:58.818Z,1.75
2023-02-27T18:53:02.824Z,3.28
2023-02-27T18:56:10.270Z,3.85
2023-02-27T18:59:14.604Z,4.78
2023-02-27T19:02:22.892Z,5.55
2023-02-27T19:05:29.291Z,6.68
2023-02-27T19:08:35.371Z,3.92
2023-02-27T19:11:39.882Z,3.88
2023-02-27T19:14:46.065Z,3.45
2023-02-27T19:17:54.069Z,3.55
2023-02-27T19:21:05.222Z,2.85
2023-02-27T19:24:11.449Z,2.90
2023-02-27T19:27:18.289Z,2.20
2023-02-27T19:30:22.808Z,2.33
2023-02-27T19:33:31.703Z,2.50
2023-02-27T19:36:36.047Z,2.75
2023-02-27T19:39:42.276Z,2.85
2023-02-27T19:42:46.183Z,3.13
2023-02-27T19:45:52.179Z,2.67
2023-02-27T19:52:04.750Z,2.83
2023-02-27T19:55:09.557Z,3.85
2023-02-27T19:58:15.533Z,4.45
2023-02-27T20:01:23.767Z,5.35
2023-02-27T20:04:32.097Z,6.40
2023-02-27T20:07:36.700Z,6.78
2023-02-27T20:10:44.423Z,5.78
2023-02-27T20:13:48.825Z,5.93
2023-02-27T20:16:55.937Z,5.50
2023-02-27T20:20:01.851Z,4.95
2023-02-27T20:23:07.749Z,5.20
2023-02-27T20:29:24.486Z,4.97
2023-02-27T20:32:28.698Z,5.85
2023-02-27T20:35:38.610Z,7.32
2023-02-27T20:38:43.502Z,6.07
2023-02-27T20:41:51.815Z,6.72
2023-02-27T20:44:55.995Z,7.57
2023-02-27T20:48:04.992Z,7.40
2023-02-27T20:51:13.580Z,7.15
2023-02-27T20:54:22.667Z,6.03
2023-02-27T20:57:26.731Z,6.40
2023-02-27T21:00:32.776Z,5.50
2023-02-27T21:03:39.156Z,5.95
2023-02-27T21:06:47.240Z,4.80
2023-02-27T21:09:52.030Z,3.55
2023-02-27T21:12:57.965Z,3.92
2023-02-27T21:16:01.975Z,4.55
2023-02-27T21:19:08.918Z,5.18
2023-02-27T21:22:16.247Z,5.57
2023-02-27T21:25:22.149Z,6.10
2023-02-27T21:28:26.147Z,6.72
2023-02-27T21:31:33.974Z,7.65
2023-02-27T21:34:38.080Z,6.13
2023-02-27T21:37:47.381Z,5.22
2023-02-27T21:40:51.257Z,5.22
2023-02-27T21:44:00.632Z,4.22
2023-02-27T21:47:09.329Z,3.90
2023-02-27T21:50:17.568Z,4.60
2023-02-27T21:53:23.385Z,4.97
2023-02-27T21:56:30.741Z,4.93
2023-02-27T21:59:34.643Z,4.47
2023-02-27T22:02:41.203Z,4.47
2023-02-27T22:05:45.955Z,4.63
2023-02-27T22:08:57.149Z,4.20
2023-02-27T22:12:01.105Z,4.65
2023-02-27T22:15:08.287Z,14.38
2023-02-27T22:18:12.129Z,18.92
2023-02-27T22:21:20.548Z,14.65
2023-02-27T22:24:26.301Z,10.43
2023-02-27T22:27:32.188Z,7.43
2023-02-27T22:30:36.191Z,4.85
2023-02-27T22:33:43.610Z,6.03
2023-02-27T22:36:51.453Z,6.65
2023-02-27T22:39:59.278Z,4.78
2023-02-27T22:43:03.369Z,3.85
2023-02-27T22:46:10.692Z,3.40
2023-02-27T22:49:16.588Z,3.72
2023-02-27T22:52:22.736Z,3.25
2023-02-27T22:55:29.150Z,3.33
2023-02-27T22:58:37.312Z,2.85
2023-02-27T23:01:41.499Z,3.50
2023-02-27T23:04:47.657Z,4.18
2023-02-27T23:07:51.782Z,3.53
2023-02-27T23:10:59.805Z,3.20
2023-02-27T23:14:06.238Z,2.58
2023-02-27T23:17:10.163Z,2.75
2023-02-27T23:20:16.613Z,3.10
2023-02-27T23:23:20.585Z,3.30
2023-02-27T23:26:29.267Z,3.05
2023-02-27T23:29:33.534Z,3.72
2023-02-27T23:32:43.282Z,3.38
2023-02-27T23:35:47.316Z,3.60
2023-02-27T23:38:53.529Z,3.63
2023-02-27T23:41:59.491Z,3.63
2023-02-27T23:45:19.112Z,2.90
2023-02-27T23:48:23.460Z,3.20
2023-02-27T23:51:30.757Z,3.53
2023-02-27T23:54:35.056Z,3.78
2023-02-27T23:57:43.169Z,3.95
